Dahlen, North Dakota
Current Conditions -  °F | °C
As of 4:58 PM on Monday 24 Nov 2014 (Local Time) from KRDR Reporting Station
Clear Clear  
Wind Chill:   Ceiling: Unl
Heat Index: 16°   Visibility: 10mi
Dew Point:   Wind: 13mph
Humidity: 67%   Direction: 340°NNW
Pressure: 29.94"   Gusts: NA
Location:  48.16°N, 97.93°W
Report Text: KRDR 242258Z AUTO 34011KT 10SM CLR M09/M14 A2994 RMK AO2 SLP163 T10911143
Loading
Personal Weather Stations






























Interactive Weather Map New forecast layout! Learn more

10-Day Weather Forecast

Advertisements
Track Severe Weather on mobile